Terminal Aerodrome Forecast
Issued by NWS Northern Indiana

Home | Current Version | Previous Version | Text Only | Print | Product List | Glossary On
Versions: 1 2 3 4 5 6 7 8 9 10 11 12 13 14
000
FTUS43 KIWX 292300
TAFFWA
TAF
KFWA 292323Z 3000/3024 22008KT P6SM SCT060 BKN250
      TEMPO 3010/3013 5SM BR BKN035
     FM301300 23012KT 6SM -SHRA BKN035 OVC050
     FM301900 21014KT 5SM -SHRA BR VCTS BKN035CB=

USA.gov is the U.S. government's official web portal to all federal, state and local government web resources and services.